Time;durP1;ratioP1;P1;durP2;ratioP2;P2;SDS_P1;SDS_P2;PMS_P1;PMS_P2;Temp;Humidity;BMP_temperature;BMP_pressure;BME280_temperature;BME280_humidity;BME280_pressure;Samples;Min_cycle;Max_cycle;Signal;HPM_P1;HPM_P2
2022/05/16 00:01:53;;;;;;;7.93;4.00;;;13.80;99.90;;;;;;5033105;28;20041;-71
2022/05/16 00:04:19;;;;;;;9.50;4.30;;;13.80;99.90;;;;;;5015584;28;20043;-71
2022/05/16 00:06:45;;;;;;;6.50;4.15;;;13.80;99.90;;;;;;5022940;28;20037;-70
2022/05/16 00:09:11;;;;;;;7.43;4.10;;;13.80;99.90;;;;;;5032107;28;20048;-71
2022/05/16 00:11:36;;;;;;;9.32;3.90;;;13.80;99.90;;;;;;5049679;28;20045;-72
2022/05/16 00:14:02;;;;;;;8.70;3.78;;;13.80;99.90;;;;;;5045864;28;20045;-71
2022/05/16 00:16:28;;;;;;;7.45;4.13;;;13.70;99.90;;;;;;5020971;28;20428;-71
2022/05/16 00:18:54;;;;;;;7.15;4.18;;;13.70;99.90;;;;;;5031435;28;20033;-73
2022/05/16 00:21:20;;;;;;;6.80;4.45;;;13.60;99.90;;;;;;5032314;28;20131;-71
2022/05/16 00:23:46;;;;;;;6.95;3.65;;;13.60;99.90;;;;;;5013491;28;20037;-71
2022/05/16 00:26:12;;;;;;;9.23;3.90;;;13.60;99.90;;;;;;5041095;28;20496;-71
2022/05/16 00:28:37;;;;;;;9.45;4.15;;;13.60;99.90;;;;;;5049183;28;20054;-70
2022/05/16 00:31:05;;;;;;;6.30;3.70;;;13.60;99.90;;;;;;5028871;28;20056;-70
2022/05/16 00:33:30;;;;;;;5.85;3.53;;;13.50;99.90;;;;;;5046636;28;20123;-70
2022/05/16 00:35:56;;;;;;;7.18;3.35;;;13.50;99.90;;;;;;5044084;28;20045;-71
2022/05/16 00:38:22;;;;;;;5.68;3.88;;;13.40;99.90;;;;;;5027107;28;20512;-71
2022/05/16 00:40:47;;;;;;;6.18;3.45;;;13.50;99.90;;;;;;5034663;28;20416;-70
2022/05/16 00:43:13;;;;;;;6.80;4.13;;;13.40;99.90;;;;;;5046578;28;20041;-71
2022/05/16 00:45:40;;;;;;;5.88;4.00;;;13.30;99.90;;;;;;5048762;28;20037;-69
2022/05/16 00:48:07;;;;;;;6.80;3.72;;;13.30;99.90;;;;;;5046762;28;20037;-70
2022/05/16 00:50:39;;;;;;;6.80;3.70;;;13.30;99.90;;;;;;5044154;28;20505;-70
2022/05/16 00:53:06;;;;;;;7.03;4.32;;;13.20;99.90;;;;;;5047635;28;20055;-70
2022/05/16 00:55:36;;;;;;;5.88;3.80;;;13.20;99.90;;;;;;5027447;28;20071;-70
2022/05/16 00:58:09;;;;;;;7.40;4.30;;;13.20;99.90;;;;;;5026340;28;20052;-70
2022/05/16 01:00:38;;;;;;;8.40;3.75;;;13.10;99.90;;;;;;5035089;28;20081;-70
2022/05/16 01:05:53;;;;;;;5.05;3.22;;;13.00;99.90;;;;;;5031465;28;20084;-71
2022/05/16 01:08:24;;;;;;;6.97;4.00;;;13.00;99.90;;;;;;5034513;28;20064;-71
2022/05/16 01:10:51;;;;;;;3.80;3.10;;;12.90;99.90;;;;;;5046616;28;20060;-70
2022/05/16 01:13:17;;;;;;;4.15;3.10;;;12.90;99.90;;;;;;5049996;28;20782;-71
2022/05/16 01:15:46;;;;;;;5.38;3.35;;;12.80;99.90;;;;;;5043772;28;20033;-70
2022/05/16 01:18:16;;;;;;;4.13;2.90;;;12.80;99.90;;;;;;5046717;28;20127;-70
2022/05/16 01:20:54;;;;;;;6.13;2.95;;;12.80;99.90;;;;;;5046783;28;20106;-70
2022/05/16 01:23:22;;;;;;;5.15;2.72;;;12.70;99.90;;;;;;5044314;28;20047;-70
2022/05/16 01:25:50;;;;;;;4.72;2.85;;;12.70;99.90;;;;;;5030413;28;20041;-70
2022/05/16 01:28:18;;;;;;;5.10;3.03;;;12.60;99.90;;;;;;4998106;28;20103;-70
2022/05/16 01:30:46;;;;;;;4.40;2.80;;;12.60;99.90;;;;;;5044574;28;20380;-71
2022/05/16 01:33:21;;;;;;;4.57;2.65;;;12.60;99.90;;;;;;5043871;28;20060;-70
2022/05/16 01:35:47;;;;;;;6.38;2.80;;;12.50;99.90;;;;;;5026409;28;20037;-70
2022/05/16 01:38:25;;;;;;;3.95;2.67;;;12.50;99.90;;;;;;5045433;28;20457;-71
2022/05/16 01:40:54;;;;;;;6.57;3.00;;;12.40;99.90;;;;;;5048274;28;20044;-70
2022/05/16 01:43:23;;;;;;;4.70;2.28;;;12.40;99.90;;;;;;5048515;28;20045;-71
2022/05/16 01:45:49;;;;;;;4.45;2.28;;;12.40;99.90;;;;;;5048253;28;20094;-70
2022/05/16 01:48:16;;;;;;;4.47;2.67;;;12.40;99.90;;;;;;5030047;28;20131;-71
2022/05/16 01:50:44;;;;;;;3.53;2.70;;;12.30;99.90;;;;;;5026743;28;20041;-71
2022/05/16 01:53:11;;;;;;;4.53;2.70;;;12.30;99.90;;;;;;5029871;28;20045;-71
2022/05/16 01:55:37;;;;;;;4.32;2.25;;;12.30;99.90;;;;;;5048445;28;20552;-71
2022/05/16 01:58:04;;;;;;;4.78;2.40;;;12.30;99.90;;;;;;5046193;28;20151;-70
2022/05/16 02:00:31;;;;;;;3.60;2.30;;;12.30;99.90;;;;;;5030309;28;20360;-71
2022/05/16 02:02:58;;;;;;;3.75;1.98;;;12.20;99.90;;;;;;5029177;28;20114;-71
2022/05/16 02:05:24;;;;;;;3.88;2.33;;;12.20;99.90;;;;;;5048602;28;20049;-71
2022/05/16 02:07:50;;;;;;;5.05;2.35;;;12.20;99.90;;;;;;5045109;28;20048;-71
2022/05/16 02:10:17;;;;;;;7.00;2.50;;;12.10;99.90;;;;;;5045541;28;20033;-70
2022/05/16 02:12:44;;;;;;;3.35;2.15;;;12.10;99.90;;;;;;5046531;28;20033;-71
2022/05/16 02:15:14;;;;;;;2.67;2.00;;;12.10;99.90;;;;;;5017537;28;20098;-71
2022/05/16 02:17:40;;;;;;;2.88;2.22;;;12.10;99.90;;;;;;5049531;28;20128;-69
2022/05/16 02:20:07;;;;;;;3.28;2.28;;;12.10;99.90;;;;;;5033499;28;20120;-69
2022/05/16 02:25:17;;;;;;;5.38;2.58;;;12.10;99.90;;;;;;5046611;28;20114;-71
2022/05/16 02:27:47;;;;;;;4.45;2.17;;;12.10;99.90;;;;;;5049050;28;20025;-70
2022/05/16 02:30:14;;;;;;;4.35;1.80;;;12.10;99.90;;;;;;5047850;28;21860;-70
2022/05/16 02:32:39;;;;;;;3.97;2.20;;;12.00;99.90;;;;;;5031815;28;20033;-70
2022/05/16 02:35:06;;;;;;;4.65;2.00;;;12.00;99.90;;;;;;5017957;28;20039;-71
2022/05/16 02:37:32;;;;;;;3.78;2.20;;;12.00;99.90;;;;;;5049305;28;20112;-71
2022/05/16 02:39:58;;;;;;;4.28;2.28;;;12.00;99.90;;;;;;5035506;28;20037;-71
2022/05/16 02:42:24;;;;;;;2.85;2.08;;;12.00;99.90;;;;;;5046020;28;20037;-71
2022/05/16 02:44:52;;;;;;;3.13;2.10;;;12.00;99.90;;;;;;5052117;28;20051;-71
2022/05/16 02:47:20;;;;;;;4.35;2.38;;;11.90;99.90;;;;;;5023493;28;20045;-70
2022/05/16 02:49:46;;;;;;;2.58;2.00;;;11.90;99.90;;;;;;5042174;28;20409;-70
2022/05/16 02:52:12;;;;;;;5.72;2.30;;;11.80;99.90;;;;;;5039687;28;20055;-71
2022/05/16 02:54:38;;;;;;;4.18;2.30;;;11.90;99.90;;;;;;5025917;28;20124;-71
2022/05/16 02:57:04;;;;;;;3.83;2.30;;;11.90;99.90;;;;;;5017683;28;20040;-71
2022/05/16 02:59:33;;;;;;;3.92;2.35;;;11.80;99.90;;;;;;5046951;28;20053;-70
2022/05/16 03:02:10;;;;;;;3.20;2.28;;;11.80;99.90;;;;;;5048438;28;20541;-70
2022/05/16 03:04:37;;;;;;;2.88;1.90;;;11.80;99.90;;;;;;5049292;28;20041;-70
2022/05/16 03:07:04;;;;;;;4.55;2.35;;;11.80;99.90;;;;;;5047480;28;20064;-70
2022/05/16 03:09:31;;;;;;;3.63;2.13;;;11.80;99.90;;;;;;5047324;28;20064;-71
2022/05/16 03:11:57;;;;;;;3.92;2.20;;;11.70;99.90;;;;;;5048795;28;20493;-71
2022/05/16 03:14:23;;;;;;;3.97;2.28;;;11.70;99.90;;;;;;5032473;28;20045;-71
2022/05/16 03:16:48;;;;;;;7.20;2.33;;;11.70;99.90;;;;;;5033976;28;20036;-71
2022/05/16 03:19:14;;;;;;;3.55;2.15;;;11.80;99.90;;;;;;5049470;28;20087;-71
2022/05/16 03:21:40;;;;;;;3.15;1.98;;;11.60;99.90;;;;;;5047259;28;20037;-71
2022/05/16 03:24:08;;;;;;;2.72;2.00;;;11.60;99.90;;;;;;5049467;28;20401;-76
2022/05/16 03:26:34;;;;;;;5.72;2.35;;;11.60;99.90;;;;;;5047566;28;20056;-71
2022/05/16 03:29:00;;;;;;;4.50;2.50;;;11.60;99.90;;;;;;5030827;28;20372;-71
2022/05/16 03:31:26;;;;;;;4.15;2.40;;;11.60;99.90;;;;;;5033476;28;20045;-70
2022/05/16 03:33:51;;;;;;;4.95;2.20;;;11.60;99.90;;;;;;5045317;28;20115;-70
2022/05/16 03:36:17;;;;;;;3.33;2.47;;;11.60;99.90;;;;;;5032328;28;20075;-69
2022/05/16 03:41:27;;;;;;;3.38;2.20;;;11.50;99.90;;;;;;5049090;28;20047;-70
2022/05/16 03:43:53;;;;;;;4.20;2.05;;;11.50;99.90;;;;;;5044582;28;20040;-70
2022/05/16 03:46:19;;;;;;;3.72;2.35;;;11.50;99.90;;;;;;5031327;28;20036;-70
2022/05/16 03:48:45;;;;;;;3.42;2.10;;;11.50;99.90;;;;;;5046079;28;20072;-70
2022/05/16 03:51:14;;;;;;;3.30;2.00;;;11.50;99.90;;;;;;5047076;28;20118;-69
2022/05/16 03:53:46;;;;;;;4.70;2.50;;;11.50;99.90;;;;;;5044492;28;20783;-69
2022/05/16 03:56:16;;;;;;;3.13;1.95;;;11.50;99.90;;;;;;5048456;28;20083;-71
2022/05/16 03:58:42;;;;;;;3.20;2.42;;;11.60;99.90;;;;;;5046821;28;20056;-71
2022/05/16 04:01:08;;;;;;;3.03;2.08;;;11.50;99.90;;;;;;5029760;28;20045;-73
2022/05/16 04:03:35;;;;;;;2.67;1.90;;;11.60;99.90;;;;;;5026670;28;20029;-72
2022/05/16 04:06:00;;;;;;;2.70;1.80;;;11.50;99.90;;;;;;5047392;28;20572;-72
2022/05/16 04:08:28;;;;;;;3.60;2.88;;;11.50;99.90;;;;;;5002815;28;20052;-72
2022/05/16 04:10:55;;;;;;;4.72;2.28;;;11.60;99.90;;;;;;5042907;28;20502;-73
2022/05/16 04:13:20;;;;;;;3.95;2.20;;;11.60;99.90;;;;;;5012976;28;20045;-73
2022/05/16 04:15:46;;;;;;;3.42;2.10;;;11.60;99.90;;;;;;5047973;28;20388;-72
2022/05/16 04:18:12;;;;;;;5.75;1.77;;;11.60;99.90;;;;;;5030912;28;20487;-72
2022/05/16 04:20:38;;;;;;;3.85;2.10;;;12.00;99.90;;;;;;5046869;28;20521;-72
2022/05/16 04:23:03;;;;;;;2.25;1.73;;;11.60;99.90;;;;;;4998603;28;20044;-72
2022/05/16 04:25:31;;;;;;;3.92;2.45;;;11.70;99.90;;;;;;5045939;28;20044;-72
2022/05/16 04:27:57;;;;;;;3.67;2.08;;;11.60;99.90;;;;;;5048456;28;20091;-72
2022/05/16 04:30:22;;;;;;;3.85;2.25;;;11.70;99.90;;;;;;5021955;28;20029;-72
2022/05/16 04:32:48;;;;;;;3.17;2.20;;;11.70;99.90;;;;;;5030786;28;20374;-72
2022/05/16 04:35:14;;;;;;;4.45;2.28;;;11.70;99.90;;;;;;5030683;28;20037;-72
2022/05/16 04:37:39;;;;;;;3.08;2.13;;;11.80;99.90;;;;;;5025361;28;20029;-71
2022/05/16 04:40:08;;;;;;;4.20;2.00;;;11.80;99.90;;;;;;5047293;28;20040;-72
2022/05/16 04:42:45;;;;;;;5.05;2.25;;;11.90;99.90;;;;;;5013683;28;20115;-72
2022/05/16 04:45:16;;;;;;;4.90;2.85;;;11.90;99.90;;;;;;5044994;28;20098;-72
2022/05/16 04:47:44;;;;;;;5.15;2.33;;;12.00;99.90;;;;;;5049061;28;20436;-72
2022/05/16 04:50:13;;;;;;;3.50;2.15;;;12.00;99.90;;;;;;5033037;28;20045;-72
2022/05/16 04:52:38;;;;;;;4.43;2.65;;;12.10;99.90;;;;;;5022847;28;20041;-72
2022/05/16 04:55:05;;;;;;;3.67;2.38;;;12.10;99.90;;;;;;5020464;28;20102;-71
2022/05/16 04:57:31;;;;;;;3.05;2.30;;;12.10;99.90;;;;;;5028259;28;20500;-72
2022/05/16 04:59:56;;;;;;;3.30;2.10;;;12.20;99.90;;;;;;5026105;28;20065;-72
2022/05/16 05:02:22;;;;;;;3.53;2.40;;;12.30;99.90;;;;;;5029923;28;21881;-66
2022/05/16 05:04:48;;;;;;;3.58;2.47;;;12.30;99.90;;;;;;5030732;28;20044;-72
2022/05/16 05:07:15;;;;;;;3.70;2.13;;;12.30;99.90;;;;;;5017718;28;20045;-73
2022/05/16 05:15:11;;;;;;;4.03;1.90;;;12.40;99.90;;;;;;5032398;28;20045;-73
2022/05/16 05:17:38;;;;;;;2.60;1.98;;;12.50;99.90;;;;;;5030032;28;20130;-73
2022/05/16 05:20:07;;;;;;;3.60;2.10;;;12.50;99.90;;;;;;5048968;28;20603;-73
2022/05/16 05:22:33;;;;;;;3.80;2.80;;;12.60;99.90;;;;;;5047002;28;20120;-72
2022/05/16 05:24:59;;;;;;;4.22;2.40;;;12.60;99.90;;;;;;5047091;28;20120;-73
2022/05/16 05:27:24;;;;;;;3.63;2.20;;;12.70;99.90;;;;;;5007701;28;20044;-73
2022/05/16 05:29:52;;;;;;;2.78;2.20;;;12.70;99.90;;;;;;5049207;28;20052;-72
2022/05/16 05:32:18;;;;;;;3.85;2.22;;;12.80;99.90;;;;;;5029819;28;20047;-73
2022/05/16 05:34:43;;;;;;;4.15;2.28;;;12.80;99.90;;;;;;5031595;28;20041;-72
2022/05/16 05:37:09;;;;;;;2.85;2.33;;;12.80;99.90;;;;;;5044704;28;20440;-72
2022/05/16 05:39:35;;;;;;;4.10;1.88;;;12.80;99.90;;;;;;5048858;28;20045;-72
2022/05/16 05:42:01;;;;;;;2.58;1.73;;;12.90;99.90;;;;;;5047638;28;20099;-71
2022/05/16 05:44:27;;;;;;;4.70;2.05;;;12.90;99.90;;;;;;5049698;28;20397;-71
2022/05/16 05:46:53;;;;;;;2.53;1.95;;;13.00;99.90;;;;;;5043831;28;20044;-71
2022/05/16 05:49:19;;;;;;;3.95;2.25;;;13.10;99.90;;;;;;5018767;28;20041;-71
2022/05/16 05:51:45;;;;;;;6.22;2.50;;;13.20;99.90;;;;;;5040893;28;21055;-71
2022/05/16 05:54:11;;;;;;;3.08;2.15;;;13.20;99.90;;;;;;5016720;28;20048;-71
2022/05/16 05:56:37;;;;;;;3.28;2.42;;;13.40;99.90;;;;;;5041297;28;20036;-71
2022/05/16 05:59:03;;;;;;;2.95;1.85;;;13.40;99.90;;;;;;5030135;28;20209;-71
2022/05/16 06:01:31;;;;;;;2.83;2.33;;;13.50;99.90;;;;;;5048313;28;20049;-71
2022/05/16 06:03:57;;;;;;;6.43;1.90;;;13.70;99.90;;;;;;5047007;28;20110;-71
2022/05/16 06:06:24;;;;;;;4.60;2.20;;;13.70;99.90;;;;;;5024324;28;20044;-71
2022/05/16 06:08:50;;;;;;;4.90;2.50;;;13.80;99.90;;;;;;5013525;28;20056;-72
2022/05/16 06:11:16;;;;;;;6.40;2.47;;;13.90;99.90;;;;;;5012451;28;20053;-71
2022/05/16 06:13:43;;;;;;;4.05;2.10;;;13.90;99.90;;;;;;5023183;28;20045;-71
2022/05/16 06:16:09;;;;;;;4.10;2.03;;;14.00;99.90;;;;;;5008533;28;20125;-72
2022/05/16 06:18:35;;;;;;;3.70;2.10;;;14.00;99.90;;;;;;5028432;28;20112;-72
2022/05/16 06:21:01;;;;;;;3.15;2.30;;;14.20;99.90;;;;;;5045793;28;20044;-71
2022/05/16 06:23:27;;;;;;;4.53;2.20;;;14.30;99.90;;;;;;5044364;28;20045;-71
2022/05/16 06:25:53;;;;;;;5.20;2.10;;;14.50;99.90;;;;;;5043328;28;20056;-71
2022/05/16 06:28:26;;;;;;;4.55;1.73;;;14.50;99.90;;;;;;5046757;28;20053;-71
2022/05/16 06:30:53;;;;;;;4.68;2.47;;;14.60;99.90;;;;;;5046370;28;20060;-71
2022/05/16 06:33:22;;;;;;;3.92;2.20;;;14.70;99.90;;;;;;5021886;28;20140;-72
2022/05/16 06:35:49;;;;;;;6.60;2.42;;;14.70;99.90;;;;;;5046693;28;20037;-71
2022/05/16 06:38:17;;;;;;;8.60;2.33;;;14.60;99.90;;;;;;5028142;28;20040;-70
2022/05/16 06:40:46;;;;;;;6.25;2.50;;;14.60;99.90;;;;;;5020392;28;20068;-70
2022/05/16 06:43:12;;;;;;;4.45;2.38;;;14.60;99.90;;;;;;5038720;28;20045;-71
2022/05/16 06:45:38;;;;;;;3.50;2.35;;;14.70;99.90;;;;;;5021317;28;20120;-71
2022/05/16 06:48:05;;;;;;;7.68;4.28;;;14.80;99.90;;;;;;5042638;28;20060;-71
2022/05/16 06:50:32;;;;;;;10.02;4.70;;;15.00;99.90;;;;;;5048383;28;20061;-71
2022/05/16 06:52:59;;;;;;;29.23;21.60;;;15.00;99.90;;;;;;5041512;28;20040;-70
2022/05/16 06:55:25;;;;;;;105.70;70.80;;;15.10;99.90;;;;;;5042936;28;20116;-71
2022/05/16 06:57:51;;;;;;;67.28;43.53;;;15.40;99.90;;;;;;5039721;28;20099;-71
2022/05/16 07:00:17;;;;;;;27.38;17.20;;;15.50;99.90;;;;;;5028636;28;20056;-71
2022/05/16 07:02:43;;;;;;;11.30;6.32;;;15.60;99.90;;;;;;5050847;28;20123;-71
2022/05/16 07:05:09;;;;;;;8.90;4.35;;;15.80;99.90;;;;;;5010204;28;20132;-71
2022/05/16 07:07:35;;;;;;;5.75;3.00;;;15.90;99.90;;;;;;5042876;28;20068;-71
2022/05/16 07:10:04;;;;;;;3.80;2.40;;;16.00;99.90;;;;;;5046545;28;20493;-71
2022/05/16 07:12:30;;;;;;;5.03;2.70;;;16.20;99.90;;;;;;5049941;28;20516;-70
2022/05/16 07:14:56;;;;;;;3.58;2.00;;;16.30;99.90;;;;;;5051419;28;20064;-71
2022/05/16 07:17:22;;;;;;;7.28;2.35;;;16.40;99.90;;;;;;5050062;28;20092;-70
2022/05/16 07:19:49;;;;;;;4.88;2.10;;;16.60;99.90;;;;;;5051773;28;20041;-71
2022/05/16 07:22:17;;;;;;;3.90;2.28;;;16.70;99.90;;;;;;5051489;28;20053;-71
2022/05/16 07:24:44;;;;;;;5.75;2.47;;;16.70;99.90;;;;;;5051245;28;20040;-68
2022/05/16 07:29:54;;;;;;;6.93;2.67;;;16.70;99.90;;;;;;5036889;28;20094;-69
2022/05/16 07:32:20;;;;;;;5.88;2.85;;;16.90;99.90;;;;;;5050507;28;20465;-71
2022/05/16 07:34:46;;;;;;;8.73;2.78;;;17.10;99.90;;;;;;5035299;28;20326;-69
2022/05/16 07:37:12;;;;;;;5.30;2.60;;;17.30;99.90;;;;;;5050796;28;20041;-71
2022/05/16 07:39:38;;;;;;;7.63;2.80;;;17.40;99.90;;;;;;5028479;28;20034;-71
2022/05/16 07:42:09;;;;;;;4.20;2.33;;;17.50;99.90;;;;;;5047110;28;20037;-70
2022/05/16 07:44:37;;;;;;;7.13;2.78;;;17.40;99.90;;;;;;5003935;28;20099;-71
2022/05/16 07:47:04;;;;;;;5.20;2.13;;;17.50;99.90;;;;;;5031662;28;20120;-71
2022/05/16 07:49:30;;;;;;;5.35;2.28;;;17.60;99.90;;;;;;5038245;28;20536;-71
2022/05/16 07:51:56;;;;;;;4.68;2.10;;;18.00;99.90;;;;;;5035105;28;20079;-70
2022/05/16 07:54:22;;;;;;;6.43;2.50;;;18.10;99.90;;;;;;5034009;28;20045;-71
2022/05/16 07:56:48;;;;;;;3.58;2.30;;;18.10;99.90;;;;;;5018387;28;20049;-70
2022/05/16 07:59:16;;;;;;;4.40;2.28;;;18.10;99.90;;;;;;5048791;28;20053;-70
2022/05/16 08:01:42;;;;;;;7.25;2.40;;;18.20;99.90;;;;;;5043240;28;20045;-70
2022/05/16 08:04:08;;;;;;;7.88;2.30;;;18.30;99.90;;;;;;5024989;28;20051;-69
2022/05/16 08:06:35;;;;;;;5.72;2.60;;;18.30;99.90;;;;;;5025682;28;20493;-70
2022/05/16 08:11:46;;;;;;;4.85;2.53;;;18.70;99.90;;;;;;5041718;28;20095;-69
2022/05/16 08:14:12;;;;;;;5.00;2.67;;;18.80;99.90;;;;;;5026468;28;20037;-69
2022/05/16 08:16:39;;;;;;;7.95;2.20;;;18.90;99.90;;;;;;5041678;28;20496;-71
2022/05/16 08:19:04;;;;;;;5.63;2.42;;;18.90;99.90;;;;;;5022456;28;20056;-70
2022/05/16 08:21:30;;;;;;;9.35;3.15;;;19.10;99.90;;;;;;5046887;28;20427;-70
2022/05/16 08:23:56;;;;;;;3.47;1.90;;;19.30;99.90;;;;;;5047014;28;20684;-71
2022/05/16 08:26:23;;;;;;;5.10;2.38;;;19.40;99.90;;;;;;5038105;28;20036;-70
2022/05/16 08:28:49;;;;;;;6.03;2.55;;;19.60;99.90;;;;;;5050441;28;20052;-70
2022/05/16 08:31:15;;;;;;;5.75;2.30;;;19.50;99.90;;;;;;5048039;28;20051;-69
2022/05/16 08:33:40;;;;;;;6.28;2.30;;;19.50;99.90;;;;;;5050356;28;20059;-70
2022/05/16 08:41:55;;;;;;;5.07;2.25;;;19.70;99.90;;;;;;5043302;28;20119;-71
2022/05/16 08:44:32;;;;;;;4.68;1.90;;;20.00;99.90;;;;;;5037800;28;20045;-72
2022/05/16 08:47:15;;;;;;;9.45;2.38;;;20.10;99.90;;;;;;5048398;28;20106;-71
2022/05/16 08:49:50;;;;;;;5.43;2.40;;;20.20;99.90;;;;;;5041644;28;20041;-69
2022/05/16 08:52:31;;;;;;;4.78;1.95;;;20.40;99.90;;;;;;5039864;28;20448;-70
2022/05/16 08:55:22;;;;;;;3.00;2.15;;;20.60;99.90;;;;;;5041315;28;20879;-69
2022/05/16 08:57:55;;;;;;;5.60;2.40;;;20.70;99.90;;;;;;5048615;28;20041;-69
2022/05/16 09:00:34;;;;;;;6.10;3.13;;;20.90;99.90;;;;;;5029168;28;20061;-70
2022/05/16 09:03:03;;;;;;;4.05;1.88;;;21.00;99.90;;;;;;5048227;28;20056;-70
2022/05/16 09:05:35;;;;;;;5.55;2.35;;;21.20;99.90;;;;;;5034341;28;20068;-69
2022/05/16 09:08:04;;;;;;;5.55;2.60;;;21.30;99.90;;;;;;5047455;28;20078;-70
2022/05/16 09:10:51;;;;;;;4.93;2.35;;;21.70;99.90;;;;;;5031901;28;20044;-71
2022/05/16 09:13:22;;;;;;;3.25;2.17;;;21.80;99.90;;;;;;5016288;28;20378;-71
2022/05/16 09:16:16;;;;;;;3.58;2.20;;;22.10;99.90;;;;;;5047528;28;20039;-72
2022/05/16 09:18:58;;;;;;;4.60;2.33;;;22.20;99.90;;;;;;5029152;28;20037;-70
2022/05/16 09:22:03;;;;;;;5.00;2.28;;;22.50;99.90;;;;;;5029455;28;20580;-70
2022/05/16 09:24:38;;;;;;;5.75;2.13;;;22.60;99.90;;;;;;5020121;28;20052;-70
2022/05/16 09:30:10;;;;;;;;;;;22.90;99.90;;;;;;5041849;28;20036;-70
2022/05/16 09:32:44;;;;;;;5.80;2.30;;;22.90;99.90;;;;;;5030155;28;20007;-72
2022/05/16 09:35:24;;;;;;;6.85;2.50;;;23.10;99.90;;;;;;5047778;28;20414;-71
2022/05/16 09:37:53;;;;;;;4.45;2.00;;;23.10;99.90;;;;;;5037579;28;20045;-70
2022/05/16 09:40:24;;;;;;;5.68;2.00;;;23.00;99.90;;;;;;5028588;28;20041;-71
2022/05/16 09:42:52;;;;;;;6.22;2.33;;;23.10;99.90;;;;;;5029327;28;20048;-71
2022/05/16 09:45:23;;;;;;;4.63;2.50;;;23.00;99.90;;;;;;5047856;28;20041;-70
2022/05/16 09:47:49;;;;;;;5.47;2.40;;;23.20;99.90;;;;;;5022265;28;20042;-69
2022/05/16 09:50:20;;;;;;;3.53;1.95;;;23.50;99.90;;;;;;5012200;28;20046;-72
2022/05/16 09:52:46;;;;;;;4.45;2.30;;;23.80;99.90;;;;;;5032946;28;20047;-70
2022/05/16 09:55:41;;;;;;;5.97;2.22;;;23.50;99.90;;;;;;5031073;28;20037;-71
2022/05/16 09:58:19;;;;;;;6.25;3.45;;;23.80;99.90;;;;;;5044967;28;20041;-71
2022/05/16 10:00:54;;;;;;;4.68;2.30;;;24.20;99.90;;;;;;5040054;28;20068;-71
2022/05/16 10:03:42;;;;;;;4.07;1.90;;;24.40;99.90;;;;;;5029131;28;20134;-70
2022/05/16 10:06:46;;;;;;;4.20;2.00;;;25.00;99.90;;;;;;5030373;28;20146;-70
2022/05/16 10:09:15;;;;;;;4.03;2.20;;;24.40;99.90;;;;;;5003223;28;20037;-70
2022/05/16 10:11:43;;;;;;;5.45;2.95;;;24.10;99.90;;;;;;5039214;28;20485;-70
2022/05/16 10:14:10;;;;;;;6.75;2.50;;;24.20;99.90;;;;;;5030887;28;20048;-70
2022/05/16 10:16:39;;;;;;;4.20;2.13;;;24.20;99.90;;;;;;5045407;28;20049;-70
2022/05/16 10:19:13;;;;;;;5.28;2.33;;;24.70;99.90;;;;;;5047213;28;20515;-70
2022/05/16 10:21:50;;;;;;;;;;;24.90;99.90;;;;;;5047869;28;20044;-71
2022/05/16 10:24:17;;;;;;;3.67;2.40;;;25.20;98.30;;;;;;5046420;28;20011;-72
2022/05/16 10:26:45;;;;;;;3.42;2.22;;;25.80;97.60;;;;;;5046144;28;20084;-70
2022/05/16 10:29:19;;;;;;;5.65;2.20;;;25.90;95.40;;;;;;5045937;28;20139;-71
2022/05/16 10:34:45;;;;;;;5.40;1.92;;;25.50;91.80;;;;;;5029342;28;20095;-71
2022/05/16 10:37:11;;;;;;;4.95;2.42;;;25.60;90.60;;;;;;5051983;28;20048;-71
2022/05/16 10:39:43;;;;;;;4.80;2.28;;;26.20;92.60;;;;;;5026297;28;20033;-72
2022/05/16 10:42:17;;;;;;;8.40;2.63;;;25.70;90.50;;;;;;5031853;28;20497;-71
2022/05/16 10:45:09;;;;;;;5.47;2.45;;;25.20;90.00;;;;;;5039721;28;20124;-70
2022/05/16 10:47:45;;;;;;;4.90;2.38;;;25.30;90.10;;;;;;5031400;28;20060;-72
2022/05/16 10:50:19;;;;;;;5.28;2.47;;;25.20;91.20;;;;;;5035595;28;20578;-71
2022/05/16 10:52:45;;;;;;;;;;;25.50;92.90;;;;;;5036174;28;20425;-71
2022/05/16 10:55:11;;;;;;;5.40;2.65;;;25.50;90.80;;;;;;5049871;28;20066;-72
2022/05/16 10:57:59;;;;;;;6.75;3.15;;;25.60;90.70;;;;;;5050118;28;20059;-69
2022/05/16 11:00:49;;;;;;;4.93;2.20;;;25.40;87.80;;;;;;5028819;28;20481;-71
2022/05/16 11:03:24;;;;;;;4.22;2.30;;;25.40;87.50;;;;;;5015362;28;20132;-71
2022/05/16 11:06:11;;;;;;;6.70;2.13;;;25.50;88.10;;;;;;5039048;28;20048;-73
2022/05/16 11:08:45;;;;;;;5.65;2.67;;;25.20;85.30;;;;;;5031864;28;20083;-72
2022/05/16 11:11:34;;;;;;;4.03;2.40;;;25.40;88.50;;;;;;5049200;28;20412;-71
2022/05/16 11:14:06;;;;;;;3.55;2.55;;;25.50;89.60;;;;;;5051156;28;20049;-73
2022/05/16 11:16:41;;;;;;;5.57;2.20;;;25.60;89.00;;;;;;5048380;28;20028;-72
2022/05/16 11:19:17;;;;;;;7.07;2.25;;;25.50;87.70;;;;;;5050800;28;20526;-73
2022/05/16 11:21:58;;;;;;;5.35;2.45;;;25.50;91.00;;;;;;5049476;28;20064;-71
2022/05/16 11:24:44;;;;;;;3.65;2.08;;;25.60;89.50;;;;;;5048861;28;20087;-72
2022/05/16 11:27:19;;;;;;;5.68;2.30;;;25.90;90.30;;;;;;5026306;28;20048;-71
2022/05/16 11:30:07;;;;;;;5.43;2.78;;;25.80;88.90;;;;;;5051149;28;20548;-72
2022/05/16 11:32:49;;;;;;;6.15;2.25;;;25.50;85.90;;;;;;5048563;28;20112;-72
2022/05/16 11:35:38;;;;;;;5.40;2.20;;;25.40;85.40;;;;;;5050943;28;20600;-71
2022/05/16 11:38:07;;;;;;;3.42;2.10;;;25.20;87.50;;;;;;5045065;28;20144;-71
2022/05/16 11:40:59;;;;;;;5.43;2.35;;;25.10;86.70;;;;;;5034178;28;20048;-71
2022/05/16 11:43:36;;;;;;;4.07;2.13;;;24.80;88.40;;;;;;5049103;28;20084;-70
2022/05/16 11:46:10;;;;;;;3.92;2.10;;;24.70;84.70;;;;;;5040200;28;20041;-70
2022/05/16 11:49:07;;;;;;;4.15;2.20;;;24.50;88.80;;;;;;5048667;28;20100;-70
2022/05/16 11:51:36;;;;;;;5.10;2.17;;;24.40;87.90;;;;;;5049081;28;20114;-71
2022/05/16 11:54:04;;;;;;;5.70;2.38;;;24.30;91.80;;;;;;5062122;28;20080;-70
2022/05/16 12:02:47;;;;;;;6.22;2.45;;;24.20;96.70;;;;;;5048492;28;20114;-70
2022/05/16 12:05:22;;;;;;;5.30;2.40;;;24.10;96.90;;;;;;5030908;28;20041;-69
2022/05/16 12:08:14;;;;;;;3.03;2.20;;;24.30;99.30;;;;;;5045529;28;20056;-71
2022/05/16 12:11:02;;;;;;;5.38;2.42;;;24.20;99.90;;;;;;5026680;28;20527;-71
2022/05/16 12:13:39;;;;;;;4.65;3.00;;;24.20;98.60;;;;;;5048266;28;20073;-72
2022/05/16 12:16:18;;;;;;;7.28;2.80;;;24.10;99.90;;;;;;5014333;28;20091;-70
2022/05/16 12:18:46;;;;;;;5.22;3.05;;;24.20;99.90;;;;;;5016237;28;20033;-70
2022/05/16 12:21:12;;;;;;;7.13;3.08;;;24.20;99.90;;;;;;5050072;28;20499;-72
2022/05/16 12:23:44;;;;;;;6.97;2.70;;;24.30;99.90;;;;;;5033256;28;20051;-71
2022/05/16 12:26:11;;;;;;;6.70;2.40;;;24.20;99.90;;;;;;5040913;28;20057;-69
2022/05/16 12:28:37;;;;;;;4.57;2.50;;;24.10;99.90;;;;;;5029407;28;20141;-70
2022/05/16 12:31:06;;;;;;;4.65;2.70;;;24.10;99.90;;;;;;5046521;28;20091;-69
2022/05/16 12:33:33;;;;;;;3.85;2.50;;;24.10;99.90;;;;;;5017038;28;20080;-71
2022/05/16 12:35:59;;;;;;;5.03;2.40;;;24.20;99.90;;;;;;5027656;28;20048;-71
2022/05/16 12:38:28;;;;;;;7.35;2.97;;;24.20;99.90;;;;;;5032793;28;20481;-71
2022/05/16 12:41:44;;;;;;;5.13;2.65;;;24.20;99.90;;;;;;5027981;28;20547;-71
2022/05/16 12:44:52;;;;;;;3.65;2.47;;;24.30;99.90;;;;;;5032298;28;20052;-70
2022/05/16 12:47:45;;;;;;;8.43;2.90;;;24.10;99.90;;;;;;5049487;28;20041;-70
2022/05/16 12:50:23;;;;;;;11.70;3.08;;;24.10;99.90;;;;;;5047813;28;20040;-70
2022/05/16 12:53:17;;;;;;;5.20;2.67;;;24.20;99.90;;;;;;5048916;28;20610;-71
2022/05/16 12:56:04;;;;;;;3.83;2.42;;;24.20;99.90;;;;;;5046371;28;20399;-72
2022/05/16 12:59:03;;;;;;;8.38;3.40;;;24.10;99.90;;;;;;5030411;28;20058;-70
2022/05/16 13:01:36;;;;;;;6.38;2.60;;;24.10;99.90;;;;;;5021395;28;20048;-71
2022/05/16 13:04:30;;;;;;;5.97;2.50;;;23.90;99.90;;;;;;5029134;28;20072;-70
2022/05/16 13:07:32;;;;;;;5.50;2.42;;;23.80;99.90;;;;;;5013539;28;20046;-71
2022/05/16 13:10:29;;;;;;;7.00;2.92;;;23.90;99.90;;;;;;5011945;28;20060;-70
2022/05/16 13:13:04;;;;;;;7.43;3.03;;;23.80;99.90;;;;;;5048275;28;20072;-70
2022/05/16 13:15:35;;;;;;;4.70;2.47;;;23.70;99.90;;;;;;5048544;28;20377;-70
2022/05/16 13:18:08;;;;;;;7.25;3.10;;;23.70;99.90;;;;;;5030131;28;20148;-71
2022/05/16 13:20:36;;;;;;;4.70;3.00;;;23.70;99.90;;;;;;5043975;28;20037;-69
2022/05/16 13:23:03;;;;;;;8.27;2.78;;;23.70;99.90;;;;;;5014636;28;20612;-71
2022/05/16 13:25:30;;;;;;;7.15;2.97;;;23.80;99.90;;;;;;5012316;28;20072;-71
2022/05/16 13:30:44;;;;;;;6.72;3.25;;;24.00;99.90;;;;;;5047182;28;20114;-71
2022/05/16 13:33:33;;;;;;;5.75;2.80;;;24.00;99.90;;;;;;5029494;28;20051;-72
2022/05/16 13:36:20;;;;;;;8.15;3.38;;;24.20;99.90;;;;;;5048580;28;20037;-70
2022/05/16 13:38:53;;;;;;;6.13;3.22;;;24.10;99.90;;;;;;5041103;28;20029;-70
2022/05/16 13:41:28;;;;;;;6.95;3.17;;;24.10;99.90;;;;;;5028717;28;20033;-69
2022/05/16 13:43:54;;;;;;;5.72;3.13;;;24.20;99.90;;;;;;5045035;28;20049;-71
2022/05/16 13:46:22;;;;;;;5.07;3.15;;;24.10;99.90;;;;;;5045069;28;20048;-71